FMNA Airport Information

Runway Information
Runway 13 Length 4921 ft width 98 ft
Elevation 312 ft Threshold 0 ft Heading 124
Runway 31 Length 4921 ft Width 98 ft
Elevation 374 ft Threshold 0 ft Heading 304
Airport Frequencies
Type A/G Name A/G VOICE Frequency 548.4 MHZ
Type AFIS Name AFIS INFO Frequency 118.1 MHZ
Airport Navaids
Type NDB Name Arrachart Frequency 390 KHZ
Airport Weather Information & NOTAM
ADDS - METARS form results

(1111 UTC 23 May 2019)
Data provider http://aviationweather.gov/metar/data/
 
METAR text: FMNA 231100Z 14008KT 9999 SCT020 31/20 Q1012
Conditions at: FMNA (DIEGO-SUAREZ/ANT, KM) observed 1100 UTC 23 May 2019
Temperature: 31.0°C (88°F)
Dewpoint: 20.0°C (68°F) [RH = 52%]
Pressure (altimeter): 29.88 inches Hg (1012.0 mb)
Winds: from the SE (140 degrees) at 9 MPH (8 knots; 4.1 m/s)
Visibility: 6 or more miles (10+ km)
Ceiling: at least 12,000 feet AGL
Clouds: scattered clouds at 2000 feet AGL
Weather: no significant weather observed at this time

Forecast for: FMNA (DIEGO-SUAREZ/ANT, KM)
Text: TAF FMNA 230500Z 2306/2406 14010KT 9999 SCT020
Forecast period: 0600 UTC 23 May 2019 to 0600 UTC 24 May 2019
Forecast type: FROM: standard forecast or significant change
Winds: from the SE (140 degrees) at 12 MPH (10 knots; 5.1 m/s)
Visibility: 6 or more miles 10+ km)
Ceiling: at least 12,000 feet AGL
Clouds: scattered clouds at 2000 feet AGL
Weather: no significant weather forecast for this period